sensor_id;sensor_type;location;lat;lon;timestamp;P1;durP1;ratioP1;P2;durP2;ratioP2
39300;SDS011;25019;42.626;23.380;2022-11-20T00:00:49;7.80;;;5.97;;
39300;SDS011;25019;42.626;23.380;2022-11-20T00:03:14;7.20;;;4.90;;
39300;SDS011;25019;42.626;23.380;2022-11-20T00:05:40;9.27;;;5.50;;
39300;SDS011;25019;42.626;23.380;2022-11-20T00:08:06;10.07;;;6.17;;
39300;SDS011;25019;42.626;23.380;2022-11-20T00:10:31;7.93;;;5.60;;
39300;SDS011;25019;42.626;23.380;2022-11-20T00:13:07;8.13;;;4.03;;
39300;SDS011;25019;42.626;23.380;2022-11-20T00:15:33;4.10;;;3.67;;
39300;SDS011;25019;42.626;23.380;2022-11-20T00:17:59;8.50;;;5.80;;
39300;SDS011;25019;42.626;23.380;2022-11-20T00:20:24;8.33;;;4.80;;
39300;SDS011;25019;42.626;23.380;2022-11-20T00:22:50;5.20;;;3.70;;
39300;SDS011;25019;42.626;23.380;2022-11-20T00:25:16;6.07;;;3.63;;
39300;SDS011;25019;42.626;23.380;2022-11-20T00:27:42;5.90;;;3.10;;
39300;SDS011;25019;42.626;23.380;2022-11-20T00:30:08;3.33;;;2.17;;
39300;SDS011;25019;42.626;23.380;2022-11-20T00:32:34;7.37;;;2.80;;
39300;SDS011;25019;42.626;23.380;2022-11-20T00:34:59;3.87;;;2.27;;
39300;SDS011;25019;42.626;23.380;2022-11-20T00:37:25;5.03;;;2.00;;
39300;SDS011;25019;42.626;23.380;2022-11-20T00:39:51;2.83;;;2.23;;
39300;SDS011;25019;42.626;23.380;2022-11-20T00:42:17;2.90;;;2.07;;
39300;SDS011;25019;42.626;23.380;2022-11-20T00:44:43;3.60;;;2.47;;
39300;SDS011;25019;42.626;23.380;2022-11-20T00:47:09;3.23;;;2.20;;
39300;SDS011;25019;42.626;23.380;2022-11-20T00:49:36;3.37;;;2.23;;
39300;SDS011;25019;42.626;23.380;2022-11-20T00:52:01;2.63;;;1.60;;
39300;SDS011;25019;42.626;23.380;2022-11-20T00:54:27;4.60;;;2.00;;
39300;SDS011;25019;42.626;23.380;2022-11-20T00:56:53;3.90;;;2.63;;
39300;SDS011;25019;42.626;23.380;2022-11-20T00:59:19;3.77;;;2.60;;
39300;SDS011;25019;42.626;23.380;2022-11-20T01:01:44;3.23;;;2.00;;
39300;SDS011;25019;42.626;23.380;2022-11-20T01:04:10;3.40;;;1.90;;
39300;SDS011;25019;42.626;23.380;2022-11-20T01:06:36;3.30;;;1.63;;
39300;SDS011;25019;42.626;23.380;2022-11-20T01:09:04;2.77;;;1.60;;
39300;SDS011;25019;42.626;23.380;2022-11-20T01:11:37;2.73;;;1.77;;
39300;SDS011;25019;42.626;23.380;2022-11-20T01:14:05;3.87;;;1.90;;
39300;SDS011;25019;42.626;23.380;2022-11-20T01:16:36;4.07;;;2.23;;
39300;SDS011;25019;42.626;23.380;2022-11-20T01:19:04;5.90;;;2.40;;
39300;SDS011;25019;42.626;23.380;2022-11-20T01:21:32;3.83;;;1.90;;
39300;SDS011;25019;42.626;23.380;2022-11-20T01:24:01;2.63;;;1.90;;
39300;SDS011;25019;42.626;23.380;2022-11-20T01:26:29;3.73;;;2.37;;
39300;SDS011;25019;42.626;23.380;2022-11-20T01:28:56;3.40;;;2.37;;
39300;SDS011;25019;42.626;23.380;2022-11-20T01:31:24;3.33;;;1.90;;
39300;SDS011;25019;42.626;23.380;2022-11-20T01:34:00;3.43;;;1.73;;
39300;SDS011;25019;42.626;23.380;2022-11-20T01:36:27;3.17;;;2.50;;
39300;SDS011;25019;42.626;23.380;2022-11-20T01:38:56;2.80;;;1.80;;
39300;SDS011;25019;42.626;23.380;2022-11-20T01:41:24;4.80;;;2.20;;
39300;SDS011;25019;42.626;23.380;2022-11-20T01:44:10;3.33;;;2.07;;
39300;SDS011;25019;42.626;23.380;2022-11-20T01:46:40;3.30;;;2.00;;
39300;SDS011;25019;42.626;23.380;2022-11-20T01:51:50;3.53;;;1.80;;
39300;SDS011;25019;42.626;23.380;2022-11-20T01:54:31;4.00;;;2.33;;
39300;SDS011;25019;42.626;23.380;2022-11-20T01:57:10;3.37;;;2.50;;
39300;SDS011;25019;42.626;23.380;2022-11-20T01:59:41;4.17;;;2.57;;
39300;SDS011;25019;42.626;23.380;2022-11-20T02:02:18;3.77;;;2.60;;
39300;SDS011;25019;42.626;23.380;2022-11-20T02:04:44;4.07;;;2.80;;
39300;SDS011;25019;42.626;23.380;2022-11-20T02:07:10;5.17;;;2.93;;
39300;SDS011;25019;42.626;23.380;2022-11-20T02:09:37;4.27;;;2.73;;
39300;SDS011;25019;42.626;23.380;2022-11-20T02:12:02;4.03;;;2.70;;
39300;SDS011;25019;42.626;23.380;2022-11-20T02:14:28;5.27;;;2.60;;
39300;SDS011;25019;42.626;23.380;2022-11-20T02:16:54;5.30;;;2.50;;
39300;SDS011;25019;42.626;23.380;2022-11-20T02:19:27;4.17;;;1.60;;
39300;SDS011;25019;42.626;23.380;2022-11-20T02:24:26;2.50;;;1.00;;
39300;SDS011;25019;42.626;23.380;2022-11-20T02:26:57;2.27;;;0.90;;
39300;SDS011;25019;42.626;23.380;2022-11-20T02:29:33;2.00;;;0.90;;
39300;SDS011;25019;42.626;23.380;2022-11-20T02:32:17;1.10;;;0.60;;
39300;SDS011;25019;42.626;23.380;2022-11-20T02:34:43;2.67;;;1.10;;
39300;SDS011;25019;42.626;23.380;2022-11-20T02:37:09;1.70;;;1.30;;
39300;SDS011;25019;42.626;23.380;2022-11-20T02:39:35;2.33;;;1.20;;
39300;SDS011;25019;42.626;23.380;2022-11-20T02:42:01;3.07;;;1.60;;
39300;SDS011;25019;42.626;23.380;2022-11-20T02:44:27;1.60;;;1.10;;
39300;SDS011;25019;42.626;23.380;2022-11-20T02:46:53;3.57;;;1.40;;
39300;SDS011;25019;42.626;23.380;2022-11-20T02:49:18;2.70;;;1.10;;
39300;SDS011;25019;42.626;23.380;2022-11-20T02:51:44;3.33;;;0.90;;
39300;SDS011;25019;42.626;23.380;2022-11-20T02:54:10;3.27;;;0.80;;
39300;SDS011;25019;42.626;23.380;2022-11-20T02:56:37;2.10;;;0.60;;
39300;SDS011;25019;42.626;23.380;2022-11-20T02:59:03;2.60;;;0.90;;
39300;SDS011;25019;42.626;23.380;2022-11-20T03:01:29;2.20;;;0.67;;
39300;SDS011;25019;42.626;23.380;2022-11-20T03:03:55;2.47;;;0.70;;
39300;SDS011;25019;42.626;23.380;2022-11-20T03:06:21;2.23;;;0.60;;
39300;SDS011;25019;42.626;23.380;2022-11-20T03:08:47;3.53;;;0.50;;
39300;SDS011;25019;42.626;23.380;2022-11-20T03:11:12;2.50;;;0.57;;
39300;SDS011;25019;42.626;23.380;2022-11-20T03:13:38;2.60;;;0.70;;
39300;SDS011;25019;42.626;23.380;2022-11-20T03:16:05;3.20;;;0.80;;
39300;SDS011;25019;42.626;23.380;2022-11-20T03:18:34;2.10;;;0.73;;
39300;SDS011;25019;42.626;23.380;2022-11-20T03:21:00;4.93;;;0.83;;
39300;SDS011;25019;42.626;23.380;2022-11-20T03:23:25;2.67;;;0.67;;
39300;SDS011;25019;42.626;23.380;2022-11-20T03:25:53;2.93;;;0.70;;
39300;SDS011;25019;42.626;23.380;2022-11-20T03:28:19;3.87;;;0.83;;
39300;SDS011;25019;42.626;23.380;2022-11-20T03:30:45;1.43;;;0.70;;
39300;SDS011;25019;42.626;23.380;2022-11-20T03:33:10;2.67;;;0.70;;
39300;SDS011;25019;42.626;23.380;2022-11-20T03:35:36;3.77;;;0.90;;
39300;SDS011;25019;42.626;23.380;2022-11-20T03:38:01;1.60;;;0.77;;
39300;SDS011;25019;42.626;23.380;2022-11-20T03:40:27;1.30;;;0.50;;
39300;SDS011;25019;42.626;23.380;2022-11-20T03:42:52;2.83;;;0.70;;
39300;SDS011;25019;42.626;23.380;2022-11-20T03:45:18;2.60;;;0.63;;
39300;SDS011;25019;42.626;23.380;2022-11-20T03:47:44;1.47;;;0.90;;
39300;SDS011;25019;42.626;23.380;2022-11-20T03:50:11;2.77;;;0.70;;
39300;SDS011;25019;42.626;23.380;2022-11-20T03:52:38;2.37;;;0.57;;
39300;SDS011;25019;42.626;23.380;2022-11-20T03:55:05;1.20;;;0.63;;
39300;SDS011;25019;42.626;23.380;2022-11-20T03:57:31;3.23;;;0.67;;
39300;SDS011;25019;42.626;23.380;2022-11-20T03:59:57;3.00;;;0.63;;
39300;SDS011;25019;42.626;23.380;2022-11-20T04:02:23;1.00;;;0.60;;
39300;SDS011;25019;42.626;23.380;2022-11-20T04:04:48;1.13;;;0.60;;
39300;SDS011;25019;42.626;23.380;2022-11-20T04:07:14;1.67;;;0.83;;
39300;SDS011;25019;42.626;23.380;2022-11-20T04:09:39;1.67;;;0.80;;
39300;SDS011;25019;42.626;23.380;2022-11-20T04:12:05;1.90;;;0.53;;
39300;SDS011;25019;42.626;23.380;2022-11-20T04:14:31;1.00;;;0.60;;
39300;SDS011;25019;42.626;23.380;2022-11-20T04:16:56;4.07;;;0.67;;
39300;SDS011;25019;42.626;23.380;2022-11-20T04:19:22;1.93;;;0.63;;
39300;SDS011;25019;42.626;23.380;2022-11-20T04:21:48;2.00;;;0.70;;
39300;SDS011;25019;42.626;23.380;2022-11-20T04:24:13;1.20;;;0.60;;
39300;SDS011;25019;42.626;23.380;2022-11-20T04:26:39;2.20;;;0.50;;
39300;SDS011;25019;42.626;23.380;2022-11-20T04:29:05;1.83;;;0.60;;
39300;SDS011;25019;42.626;23.380;2022-11-20T04:31:31;2.40;;;0.50;;
39300;SDS011;25019;42.626;23.380;2022-11-20T04:34:02;1.03;;;0.57;;
39300;SDS011;25019;42.626;23.380;2022-11-20T04:36:30;1.43;;;0.50;;
39300;SDS011;25019;42.626;23.380;2022-11-20T04:39:00;2.20;;;0.70;;
39300;SDS011;25019;42.626;23.380;2022-11-20T04:41:31;1.97;;;0.70;;
39300;SDS011;25019;42.626;23.380;2022-11-20T04:43:59;1.50;;;0.73;;
39300;SDS011;25019;42.626;23.380;2022-11-20T04:46:29;0.77;;;0.40;;
39300;SDS011;25019;42.626;23.380;2022-11-20T04:48:59;1.43;;;0.60;;
39300;SDS011;25019;42.626;23.380;2022-11-20T04:51:25;1.73;;;0.73;;
39300;SDS011;25019;42.626;23.380;2022-11-20T04:53:51;0.97;;;0.57;;
39300;SDS011;25019;42.626;23.380;2022-11-20T04:56:17;2.17;;;0.73;;
39300;SDS011;25019;42.626;23.380;2022-11-20T04:58:43;2.10;;;0.93;;
39300;SDS011;25019;42.626;23.380;2022-11-20T05:01:13;1.10;;;0.57;;
39300;SDS011;25019;42.626;23.380;2022-11-20T05:03:47;3.83;;;1.33;;
39300;SDS011;25019;42.626;23.380;2022-11-20T05:06:14;1.47;;;0.60;;
39300;SDS011;25019;42.626;23.380;2022-11-20T05:08:41;2.27;;;0.70;;
39300;SDS011;25019;42.626;23.380;2022-11-20T05:11:07;2.77;;;0.80;;
39300;SDS011;25019;42.626;23.380;2022-11-20T05:13:35;0.93;;;0.67;;
39300;SDS011;25019;42.626;23.380;2022-11-20T05:16:05;1.53;;;0.70;;
39300;SDS011;25019;42.626;23.380;2022-11-20T05:18:52;1.77;;;0.60;;
39300;SDS011;25019;42.626;23.380;2022-11-20T05:21:19;1.33;;;0.63;;
39300;SDS011;25019;42.626;23.380;2022-11-20T05:23:45;2.20;;;0.60;;
39300;SDS011;25019;42.626;23.380;2022-11-20T05:26:12;1.27;;;0.73;;
39300;SDS011;25019;42.626;23.380;2022-11-20T05:28:47;3.37;;;0.80;;
39300;SDS011;25019;42.626;23.380;2022-11-20T05:31:14;1.30;;;0.80;;
39300;SDS011;25019;42.626;23.380;2022-11-20T05:33:43;2.53;;;1.00;;
39300;SDS011;25019;42.626;23.380;2022-11-20T05:36:09;3.20;;;0.90;;
39300;SDS011;25019;42.626;23.380;2022-11-20T05:38:37;2.97;;;0.90;;
39300;SDS011;25019;42.626;23.380;2022-11-20T05:41:04;1.23;;;0.73;;
39300;SDS011;25019;42.626;23.380;2022-11-20T05:43:34;5.13;;;1.43;;
39300;SDS011;25019;42.626;23.380;2022-11-20T05:46:01;3.93;;;1.10;;
39300;SDS011;25019;42.626;23.380;2022-11-20T05:48:26;2.13;;;0.90;;
39300;SDS011;25019;42.626;23.380;2022-11-20T05:50:52;1.23;;;0.90;;
39300;SDS011;25019;42.626;23.380;2022-11-20T05:53:18;2.17;;;0.97;;
39300;SDS011;25019;42.626;23.380;2022-11-20T05:55:43;2.33;;;0.73;;
39300;SDS011;25019;42.626;23.380;2022-11-20T05:58:09;2.00;;;1.07;;
39300;SDS011;25019;42.626;23.380;2022-11-20T06:00:35;2.03;;;1.27;;
39300;SDS011;25019;42.626;23.380;2022-11-20T06:03:00;2.63;;;0.93;;
39300;SDS011;25019;42.626;23.380;2022-11-20T06:05:26;2.80;;;1.10;;
39300;SDS011;25019;42.626;23.380;2022-11-20T06:07:52;3.27;;;1.17;;
39300;SDS011;25019;42.626;23.380;2022-11-20T06:10:18;3.63;;;1.27;;
39300;SDS011;25019;42.626;23.380;2022-11-20T06:12:43;2.63;;;1.07;;
39300;SDS011;25019;42.626;23.380;2022-11-20T06:15:09;3.33;;;1.10;;
39300;SDS011;25019;42.626;23.380;2022-11-20T06:17:35;2.60;;;1.17;;
39300;SDS011;25019;42.626;23.380;2022-11-20T06:20:01;2.37;;;0.97;;
39300;SDS011;25019;42.626;23.380;2022-11-20T06:22:26;2.63;;;1.20;;
39300;SDS011;25019;42.626;23.380;2022-11-20T06:24:52;1.93;;;0.90;;
39300;SDS011;25019;42.626;23.380;2022-11-20T06:27:18;1.83;;;1.00;;
39300;SDS011;25019;42.626;23.380;2022-11-20T06:29:43;3.73;;;1.10;;
39300;SDS011;25019;42.626;23.380;2022-11-20T06:32:09;3.97;;;1.33;;
39300;SDS011;25019;42.626;23.380;2022-11-20T06:34:34;2.13;;;1.10;;
39300;SDS011;25019;42.626;23.380;2022-11-20T06:37:00;1.40;;;0.80;;
39300;SDS011;25019;42.626;23.380;2022-11-20T06:39:26;4.87;;;1.10;;
39300;SDS011;25019;42.626;23.380;2022-11-20T06:41:51;1.70;;;1.03;;
39300;SDS011;25019;42.626;23.380;2022-11-20T06:44:17;3.40;;;0.90;;
39300;SDS011;25019;42.626;23.380;2022-11-20T06:46:42;3.90;;;1.03;;
39300;SDS011;25019;42.626;23.380;2022-11-20T06:49:08;2.57;;;1.10;;
39300;SDS011;25019;42.626;23.380;2022-11-20T06:51:34;3.27;;;1.07;;
39300;SDS011;25019;42.626;23.380;2022-11-20T06:53:59;3.83;;;1.00;;
39300;SDS011;25019;42.626;23.380;2022-11-20T06:56:26;3.30;;;1.80;;
39300;SDS011;25019;42.626;23.380;2022-11-20T06:58:51;3.57;;;1.70;;
39300;SDS011;25019;42.626;23.380;2022-11-20T07:01:17;3.47;;;1.27;;
39300;SDS011;25019;42.626;23.380;2022-11-20T07:03:43;3.10;;;1.20;;
39300;SDS011;25019;42.626;23.380;2022-11-20T07:06:09;2.00;;;1.00;;
39300;SDS011;25019;42.626;23.380;2022-11-20T07:08:34;3.93;;;0.93;;
39300;SDS011;25019;42.626;23.380;2022-11-20T07:11:01;2.20;;;1.10;;
39300;SDS011;25019;42.626;23.380;2022-11-20T07:13:29;3.87;;;1.20;;
39300;SDS011;25019;42.626;23.380;2022-11-20T07:15:55;3.67;;;1.00;;
39300;SDS011;25019;42.626;23.380;2022-11-20T07:18:25;2.20;;;0.83;;
39300;SDS011;25019;42.626;23.380;2022-11-20T07:20:50;2.60;;;1.00;;
39300;SDS011;25019;42.626;23.380;2022-11-20T07:23:16;2.83;;;1.03;;
39300;SDS011;25019;42.626;23.380;2022-11-20T07:25:41;5.03;;;1.20;;
39300;SDS011;25019;42.626;23.380;2022-11-20T07:28:07;2.30;;;1.23;;
39300;SDS011;25019;42.626;23.380;2022-11-20T07:30:33;2.30;;;1.20;;
39300;SDS011;25019;42.626;23.380;2022-11-20T07:32:58;3.63;;;1.70;;
39300;SDS011;25019;42.626;23.380;2022-11-20T07:35:24;4.43;;;1.40;;
39300;SDS011;25019;42.626;23.380;2022-11-20T07:37:50;4.20;;;1.20;;
39300;SDS011;25019;42.626;23.380;2022-11-20T07:40:16;3.53;;;1.20;;
39300;SDS011;25019;42.626;23.380;2022-11-20T07:42:49;2.30;;;1.30;;
39300;SDS011;25019;42.626;23.380;2022-11-20T07:45:16;4.57;;;1.00;;
39300;SDS011;25019;42.626;23.380;2022-11-20T07:47:42;2.13;;;0.77;;
39300;SDS011;25019;42.626;23.380;2022-11-20T07:50:08;2.70;;;1.17;;
39300;SDS011;25019;42.626;23.380;2022-11-20T07:52:34;6.27;;;1.40;;
39300;SDS011;25019;42.626;23.380;2022-11-20T07:54:59;2.77;;;1.00;;
39300;SDS011;25019;42.626;23.380;2022-11-20T07:57:25;2.87;;;0.77;;
39300;SDS011;25019;42.626;23.380;2022-11-20T07:59:51;3.20;;;1.27;;
39300;SDS011;25019;42.626;23.380;2022-11-20T08:02:17;3.70;;;1.37;;
39300;SDS011;25019;42.626;23.380;2022-11-20T08:04:42;2.43;;;0.80;;
39300;SDS011;25019;42.626;23.380;2022-11-20T08:07:08;2.93;;;1.00;;
39300;SDS011;25019;42.626;23.380;2022-11-20T08:09:34;2.17;;;1.10;;
39300;SDS011;25019;42.626;23.380;2022-11-20T08:11:59;1.40;;;1.00;;
39300;SDS011;25019;42.626;23.380;2022-11-20T08:14:43;2.07;;;1.10;;
39300;SDS011;25019;42.626;23.380;2022-11-20T08:17:09;4.43;;;1.30;;
39300;SDS011;25019;42.626;23.380;2022-11-20T08:19:35;5.47;;;2.40;;
39300;SDS011;25019;42.626;23.380;2022-11-20T08:22:00;4.10;;;1.33;;
39300;SDS011;25019;42.626;23.380;2022-11-20T08:24:26;4.00;;;1.13;;
39300;SDS011;25019;42.626;23.380;2022-11-20T08:26:52;4.27;;;1.20;;
39300;SDS011;25019;42.626;23.380;2022-11-20T08:29:18;1.57;;;1.10;;
39300;SDS011;25019;42.626;23.380;2022-11-20T08:31:43;6.60;;;1.20;;
39300;SDS011;25019;42.626;23.380;2022-11-20T08:34:09;1.90;;;1.03;;
39300;SDS011;25019;42.626;23.380;2022-11-20T08:36:38;2.13;;;1.07;;
39300;SDS011;25019;42.626;23.380;2022-11-20T08:39:03;2.07;;;0.90;;
39300;SDS011;25019;42.626;23.380;2022-11-20T08:41:29;7.57;;;1.53;;
39300;SDS011;25019;42.626;23.380;2022-11-20T08:46:25;3.07;;;1.10;;
39300;SDS011;25019;42.626;23.380;2022-11-20T08:48:52;3.73;;;1.20;;
39300;SDS011;25019;42.626;23.380;2022-11-20T08:51:18;3.37;;;1.10;;
39300;SDS011;25019;42.626;23.380;2022-11-20T08:53:45;4.40;;;1.50;;
39300;SDS011;25019;42.626;23.380;2022-11-20T08:56:12;4.00;;;1.00;;
39300;SDS011;25019;42.626;23.380;2022-11-20T08:58:38;5.87;;;1.27;;
39300;SDS011;25019;42.626;23.380;2022-11-20T09:01:04;3.50;;;1.27;;
39300;SDS011;25019;42.626;23.380;2022-11-20T09:03:30;5.37;;;1.43;;
39300;SDS011;25019;42.626;23.380;2022-11-20T09:05:59;3.70;;;1.30;;
39300;SDS011;25019;42.626;23.380;2022-11-20T09:08:25;2.07;;;1.03;;
39300;SDS011;25019;42.626;23.380;2022-11-20T09:10:52;4.60;;;1.73;;
39300;SDS011;25019;42.626;23.380;2022-11-20T09:13:19;4.20;;;1.60;;
39300;SDS011;25019;42.626;23.380;2022-11-20T09:15:46;5.57;;;2.20;;
39300;SDS011;25019;42.626;23.380;2022-11-20T09:18:12;4.87;;;2.30;;
39300;SDS011;25019;42.626;23.380;2022-11-20T09:20:38;6.23;;;2.17;;
39300;SDS011;25019;42.626;23.380;2022-11-20T09:23:03;4.67;;;2.30;;
39300;SDS011;25019;42.626;23.380;2022-11-20T09:25:29;4.40;;;2.00;;
39300;SDS011;25019;42.626;23.380;2022-11-20T09:27:55;3.93;;;2.20;;
39300;SDS011;25019;42.626;23.380;2022-11-20T09:30:21;4.00;;;2.60;;
39300;SDS011;25019;42.626;23.380;2022-11-20T09:32:47;6.70;;;2.40;;
39300;SDS011;25019;42.626;23.380;2022-11-20T09:35:12;8.50;;;2.87;;
39300;SDS011;25019;42.626;23.380;2022-11-20T09:37:39;4.73;;;2.73;;
39300;SDS011;25019;42.626;23.380;2022-11-20T09:40:05;5.40;;;3.30;;
39300;SDS011;25019;42.626;23.380;2022-11-20T09:45:22;4.80;;;2.40;;
39300;SDS011;25019;42.626;23.380;2022-11-20T09:47:52;3.50;;;2.63;;
39300;SDS011;25019;42.626;23.380;2022-11-20T09:50:43;2.97;;;1.83;;
39300;SDS011;25019;42.626;23.380;2022-11-20T09:55:52;4.50;;;2.23;;
39300;SDS011;25019;42.626;23.380;2022-11-20T09:58:31;3.40;;;2.30;;
39300;SDS011;25019;42.626;23.380;2022-11-20T10:01:10;4.80;;;1.40;;
39300;SDS011;25019;42.626;23.380;2022-11-20T10:03:41;2.90;;;1.80;;
39300;SDS011;25019;42.626;23.380;2022-11-20T10:06:10;5.57;;;2.60;;
39300;SDS011;25019;42.626;23.380;2022-11-20T10:08:41;3.87;;;2.10;;
39300;SDS011;25019;42.626;23.380;2022-11-20T10:11:18;2.93;;;1.90;;
39300;SDS011;25019;42.626;23.380;2022-11-20T10:19:36;3.67;;;2.07;;
39300;SDS011;25019;42.626;23.380;2022-11-20T10:24:57;5.07;;;2.10;;
39300;SDS011;25019;42.626;23.380;2022-11-20T10:30:20;4.63;;;2.00;;
39300;SDS011;25019;42.626;23.380;2022-11-20T10:32:50;3.80;;;2.63;;
39300;SDS011;25019;42.626;23.380;2022-11-20T10:35:32;6.77;;;2.67;;
39300;SDS011;25019;42.626;23.380;2022-11-20T10:38:21;4.17;;;2.00;;
39300;SDS011;25019;42.626;23.380;2022-11-20T10:40:54;6.00;;;2.30;;
39300;SDS011;25019;42.626;23.380;2022-11-20T10:43:46;7.63;;;2.47;;
39300;SDS011;25019;42.626;23.380;2022-11-20T10:46:17;3.90;;;2.40;;
39300;SDS011;25019;42.626;23.380;2022-11-20T10:48:46;5.63;;;2.03;;
39300;SDS011;25019;42.626;23.380;2022-11-20T10:56:38;6.30;;;2.70;;
39300;SDS011;25019;42.626;23.380;2022-11-20T11:02:01;5.73;;;2.83;;
39300;SDS011;25019;42.626;23.380;2022-11-20T11:04:40;4.90;;;2.70;;
39300;SDS011;25019;42.626;23.380;2022-11-20T11:07:12;7.70;;;3.00;;
39300;SDS011;25019;42.626;23.380;2022-11-20T11:09:52;4.30;;;2.30;;
39300;SDS011;25019;42.626;23.380;2022-11-20T11:12:24;5.80;;;2.00;;
39300;SDS011;25019;42.626;23.380;2022-11-20T11:14:55;6.13;;;2.37;;
39300;SDS011;25019;42.626;23.380;2022-11-20T11:17:23;5.20;;;2.90;;
39300;SDS011;25019;42.626;23.380;2022-11-20T11:22:55;10.17;;;3.73;;
39300;SDS011;25019;42.626;23.380;2022-11-20T11:25:24;7.23;;;3.87;;
39300;SDS011;25019;42.626;23.380;2022-11-20T11:28:04;9.37;;;3.67;;
39300;SDS011;25019;42.626;23.380;2022-11-20T11:30:52;7.77;;;4.23;;
39300;SDS011;25019;42.626;23.380;2022-11-20T11:33:22;7.30;;;4.17;;
39300;SDS011;25019;42.626;23.380;2022-11-20T11:35:53;8.73;;;3.57;;
39300;SDS011;25019;42.626;23.380;2022-11-20T11:41:03;4.23;;;2.00;;
39300;SDS011;25019;42.626;23.380;2022-11-20T11:43:32;1.43;;;1.20;;
39300;SDS011;25019;42.626;23.380;2022-11-20T11:48:58;2.50;;;0.60;;
39300;SDS011;25019;42.626;23.380;2022-11-20T11:54:16;5.60;;;1.80;;
39300;SDS011;25019;42.626;23.380;2022-11-20T11:57:00;3.03;;;0.90;;
39300;SDS011;25019;42.626;23.380;2022-11-20T12:05:00;3.27;;;0.77;;
39300;SDS011;25019;42.626;23.380;2022-11-20T12:07:44;2.53;;;0.60;;
39300;SDS011;25019;42.626;23.380;2022-11-20T12:10:22;1.87;;;0.70;;
39300;SDS011;25019;42.626;23.380;2022-11-20T12:12:58;0.80;;;0.40;;
39300;SDS011;25019;42.626;23.380;2022-11-20T12:15:30;3.43;;;0.53;;
39300;SDS011;25019;42.626;23.380;2022-11-20T12:17:58;0.33;;;0.23;;
39300;SDS011;25019;42.626;23.380;2022-11-20T12:20:25;1.13;;;0.40;;
39300;SDS011;25019;42.626;23.380;2022-11-20T12:23:11;1.43;;;0.70;;
39300;SDS011;25019;42.626;23.380;2022-11-20T12:25:48;3.07;;;0.90;;
39300;SDS011;25019;42.626;23.380;2022-11-20T12:34:21;0.43;;;0.30;;
39300;SDS011;25019;42.626;23.380;2022-11-20T12:36:56;0.33;;;0.30;;
39300;SDS011;25019;42.626;23.380;2022-11-20T12:39:34;0.57;;;0.30;;
39300;SDS011;25019;42.626;23.380;2022-11-20T12:56:50;5.27;;;0.70;;
39300;SDS011;25019;42.626;23.380;2022-11-20T12:59:28;2.70;;;1.10;;
39300;SDS011;25019;42.626;23.380;2022-11-20T13:07:24;3.43;;;1.60;;
39300;SDS011;25019;42.626;23.380;2022-11-20T13:09:53;2.80;;;2.03;;
39300;SDS011;25019;42.626;23.380;2022-11-20T13:15:08;2.80;;;1.90;;
39300;SDS011;25019;42.626;23.380;2022-11-20T13:17:58;3.63;;;1.70;;
39300;SDS011;25019;42.626;23.380;2022-11-20T13:20:26;3.70;;;1.57;;
39300;SDS011;25019;42.626;23.380;2022-11-20T13:22:53;3.10;;;1.87;;
39300;SDS011;25019;42.626;23.380;2022-11-20T13:25:29;4.43;;;1.57;;
39300;SDS011;25019;42.626;23.380;2022-11-20T13:27:57;4.43;;;2.10;;
39300;SDS011;25019;42.626;23.380;2022-11-20T13:30:26;7.60;;;3.00;;
39300;SDS011;25019;42.626;23.380;2022-11-20T13:35:53;3.70;;;1.67;;
39300;SDS011;25019;42.626;23.380;2022-11-20T13:38:21;4.07;;;1.73;;
39300;SDS011;25019;42.626;23.380;2022-11-20T13:43:35;3.97;;;2.17;;
39300;SDS011;25019;42.626;23.380;2022-11-20T13:46:06;6.83;;;2.53;;
39300;SDS011;25019;42.626;23.380;2022-11-20T13:48:40;5.07;;;2.17;;
39300;SDS011;25019;42.626;23.380;2022-11-20T13:56:49;6.57;;;2.20;;
39300;SDS011;25019;42.626;23.380;2022-11-20T14:02:18;6.67;;;3.20;;
39300;SDS011;25019;42.626;23.380;2022-11-20T14:04:46;5.47;;;2.70;;
39300;SDS011;25019;42.626;23.380;2022-11-20T14:07:16;7.73;;;2.67;;
39300;SDS011;25019;42.626;23.380;2022-11-20T14:09:53;3.87;;;2.10;;
39300;SDS011;25019;42.626;23.380;2022-11-20T14:12:31;4.57;;;2.00;;
39300;SDS011;25019;42.626;23.380;2022-11-20T14:14:59;4.73;;;2.67;;
39300;SDS011;25019;42.626;23.380;2022-11-20T14:17:34;5.30;;;2.53;;
39300;SDS011;25019;42.626;23.380;2022-11-20T14:20:03;4.50;;;2.40;;
39300;SDS011;25019;42.626;23.380;2022-11-20T14:22:30;7.73;;;3.53;;
39300;SDS011;25019;42.626;23.380;2022-11-20T14:27:41;8.03;;;2.90;;
39300;SDS011;25019;42.626;23.380;2022-11-20T14:30:12;9.03;;;3.10;;
39300;SDS011;25019;42.626;23.380;2022-11-20T14:32:41;9.47;;;4.57;;
39300;SDS011;25019;42.626;23.380;2022-11-20T14:35:10;7.03;;;3.10;;
39300;SDS011;25019;42.626;23.380;2022-11-20T14:37:44;7.93;;;3.10;;
39300;SDS011;25019;42.626;23.380;2022-11-20T14:40:23;6.37;;;3.30;;
39300;SDS011;25019;42.626;23.380;2022-11-20T14:42:52;8.07;;;2.93;;
39300;SDS011;25019;42.626;23.380;2022-11-20T14:45:18;7.03;;;3.07;;
39300;SDS011;25019;42.626;23.380;2022-11-20T14:47:44;4.97;;;3.50;;
39300;SDS011;25019;42.626;23.380;2022-11-20T14:50:16;5.50;;;2.83;;
39300;SDS011;25019;42.626;23.380;2022-11-20T14:52:49;5.67;;;3.17;;
39300;SDS011;25019;42.626;23.380;2022-11-20T14:55:26;4.57;;;2.93;;
39300;SDS011;25019;42.626;23.380;2022-11-20T14:57:57;10.13;;;3.67;;
39300;SDS011;25019;42.626;23.380;2022-11-20T15:00:27;6.83;;;3.33;;
39300;SDS011;25019;42.626;23.380;2022-11-20T15:02:54;6.30;;;3.93;;
39300;SDS011;25019;42.626;23.380;2022-11-20T15:05:24;6.37;;;4.17;;
39300;SDS011;25019;42.626;23.380;2022-11-20T15:08:10;7.57;;;3.70;;
39300;SDS011;25019;42.626;23.380;2022-11-20T15:10:37;5.13;;;2.87;;
39300;SDS011;25019;42.626;23.380;2022-11-20T15:13:13;6.80;;;3.40;;
39300;SDS011;25019;42.626;23.380;2022-11-20T15:16:00;10.10;;;4.00;;
39300;SDS011;25019;42.626;23.380;2022-11-20T15:18:36;6.03;;;4.40;;
39300;SDS011;25019;42.626;23.380;2022-11-20T15:21:06;6.33;;;4.43;;
39300;SDS011;25019;42.626;23.380;2022-11-20T15:23:36;5.03;;;3.37;;
39300;SDS011;25019;42.626;23.380;2022-11-20T15:26:04;5.00;;;3.00;;
39300;SDS011;25019;42.626;23.380;2022-11-20T15:28:31;4.47;;;2.07;;
39300;SDS011;25019;42.626;23.380;2022-11-20T15:31:00;3.07;;;1.80;;
39300;SDS011;25019;42.626;23.380;2022-11-20T15:33:28;3.23;;;1.67;;
39300;SDS011;25019;42.626;23.380;2022-11-20T15:35:54;2.60;;;1.60;;
39300;SDS011;25019;42.626;23.380;2022-11-20T15:38:19;2.60;;;1.30;;
39300;SDS011;25019;42.626;23.380;2022-11-20T15:40:45;3.07;;;1.60;;
39300;SDS011;25019;42.626;23.380;2022-11-20T15:43:11;4.20;;;1.73;;
39300;SDS011;25019;42.626;23.380;2022-11-20T15:48:04;2.90;;;1.67;;
39300;SDS011;25019;42.626;23.380;2022-11-20T15:50:40;1.67;;;1.40;;
39300;SDS011;25019;42.626;23.380;2022-11-20T15:53:14;2.83;;;1.57;;
39300;SDS011;25019;42.626;23.380;2022-11-20T15:55:40;3.27;;;1.77;;
39300;SDS011;25019;42.626;23.380;2022-11-20T15:58:06;3.70;;;2.33;;
39300;SDS011;25019;42.626;23.380;2022-11-20T16:00:31;3.63;;;1.87;;
39300;SDS011;25019;42.626;23.380;2022-11-20T16:02:57;2.23;;;1.50;;
39300;SDS011;25019;42.626;23.380;2022-11-20T16:05:27;1.43;;;1.30;;
39300;SDS011;25019;42.626;23.380;2022-11-20T16:07:54;1.93;;;1.47;;
39300;SDS011;25019;42.626;23.380;2022-11-20T16:10:20;2.20;;;1.40;;
39300;SDS011;25019;42.626;23.380;2022-11-20T16:12:46;2.47;;;1.30;;
39300;SDS011;25019;42.626;23.380;2022-11-20T16:15:30;2.10;;;1.50;;
39300;SDS011;25019;42.626;23.380;2022-11-20T16:18:15;2.63;;;1.07;;
39300;SDS011;25019;42.626;23.380;2022-11-20T16:20:48;2.20;;;1.40;;